sensor_id;sensor_type;location;lat;lon;timestamp;P1;durP1;ratioP1;P2;durP2;ratioP2
75667;SDS011;64266;48.798;44.756;2023-04-06T00:01:53;18.02;;;9.93;;
75667;SDS011;64266;48.798;44.756;2023-04-06T00:06:56;24.35;;;11.43;;
75667;SDS011;64266;48.798;44.756;2023-04-06T00:11:59;22.75;;;11.68;;
75667;SDS011;64266;48.798;44.756;2023-04-06T00:17:02;20.35;;;11.35;;
75667;SDS011;64266;48.798;44.756;2023-04-06T00:22:05;16.38;;;8.48;;
75667;SDS011;64266;48.798;44.756;2023-04-06T00:27:09;13.43;;;7.63;;
75667;SDS011;64266;48.798;44.756;2023-04-06T00:32:12;11.80;;;7.07;;
75667;SDS011;64266;48.798;44.756;2023-04-06T00:37:15;12.13;;;6.03;;
75667;SDS011;64266;48.798;44.756;2023-04-06T00:42:19;10.10;;;6.03;;
75667;SDS011;64266;48.798;44.756;2023-04-06T00:47:28;8.43;;;4.50;;
75667;SDS011;64266;48.798;44.756;2023-04-06T00:52:31;8.40;;;4.70;;
75667;SDS011;64266;48.798;44.756;2023-04-06T00:57:35;9.63;;;4.35;;
75667;SDS011;64266;48.798;44.756;2023-04-06T01:02:38;7.50;;;4.70;;
75667;SDS011;64266;48.798;44.756;2023-04-06T01:07:43;8.55;;;4.43;;
75667;SDS011;64266;48.798;44.756;2023-04-06T01:12:50;5.80;;;4.30;;
75667;SDS011;64266;48.798;44.756;2023-04-06T01:23:19;8.18;;;4.35;;
75667;SDS011;64266;48.798;44.756;2023-04-06T01:28:22;9.80;;;4.95;;
75667;SDS011;64266;48.798;44.756;2023-04-06T01:33:42;7.80;;;4.68;;
75667;SDS011;64266;48.798;44.756;2023-04-06T01:38:48;10.63;;;4.88;;
75667;SDS011;64266;48.798;44.756;2023-04-06T01:43:55;7.78;;;4.65;;
75667;SDS011;64266;48.798;44.756;2023-04-06T01:49:01;8.43;;;4.10;;
75667;SDS011;64266;48.798;44.756;2023-04-06T01:54:08;11.65;;;5.10;;
75667;SDS011;64266;48.798;44.756;2023-04-06T01:59:22;8.75;;;4.22;;
75667;SDS011;64266;48.798;44.756;2023-04-06T02:04:25;8.18;;;4.22;;
75667;SDS011;64266;48.798;44.756;2023-04-06T02:09:38;9.25;;;4.45;;
75667;SDS011;64266;48.798;44.756;2023-04-06T02:14:47;8.38;;;4.38;;
75667;SDS011;64266;48.798;44.756;2023-04-06T02:19:50;11.23;;;4.97;;
75667;SDS011;64266;48.798;44.756;2023-04-06T02:24:52;11.02;;;4.63;;
75667;SDS011;64266;48.798;44.756;2023-04-06T02:29:55;10.35;;;4.22;;
75667;SDS011;64266;48.798;44.756;2023-04-06T02:34:57;12.23;;;4.82;;
75667;SDS011;64266;48.798;44.756;2023-04-06T02:40:00;9.15;;;4.47;;
75667;SDS011;64266;48.798;44.756;2023-04-06T02:45:05;11.57;;;4.82;;
75667;SDS011;64266;48.798;44.756;2023-04-06T02:50:13;10.35;;;4.68;;
75667;SDS011;64266;48.798;44.756;2023-04-06T02:55:25;8.73;;;4.85;;
75667;SDS011;64266;48.798;44.756;2023-04-06T03:00:28;12.07;;;5.20;;
75667;SDS011;64266;48.798;44.756;2023-04-06T03:05:30;11.07;;;5.00;;
75667;SDS011;64266;48.798;44.756;2023-04-06T03:10:34;8.43;;;4.80;;
75667;SDS011;64266;48.798;44.756;2023-04-06T03:15:37;12.88;;;4.32;;
75667;SDS011;64266;48.798;44.756;2023-04-06T03:20:47;13.00;;;4.82;;
75667;SDS011;64266;48.798;44.756;2023-04-06T03:25:53;12.80;;;5.35;;
75667;SDS011;64266;48.798;44.756;2023-04-06T03:30:56;11.18;;;5.15;;
75667;SDS011;64266;48.798;44.756;2023-04-06T03:36:14;18.88;;;5.75;;
75667;SDS011;64266;48.798;44.756;2023-04-06T03:41:18;12.98;;;5.72;;
75667;SDS011;64266;48.798;44.756;2023-04-06T03:46:44;16.95;;;7.38;;
75667;SDS011;64266;48.798;44.756;2023-04-06T03:51:47;16.48;;;4.80;;
75667;SDS011;64266;48.798;44.756;2023-04-06T03:56:51;12.27;;;4.55;;
75667;SDS011;64266;48.798;44.756;2023-04-06T04:01:54;18.80;;;7.80;;
75667;SDS011;64266;48.798;44.756;2023-04-06T04:06:57;15.60;;;4.18;;
75667;SDS011;64266;48.798;44.756;2023-04-06T04:12:01;11.27;;;4.07;;
75667;SDS011;64266;48.798;44.756;2023-04-06T04:17:06;14.85;;;4.72;;
75667;SDS011;64266;48.798;44.756;2023-04-06T04:22:09;25.33;;;7.47;;
75667;SDS011;64266;48.798;44.756;2023-04-06T04:27:14;21.08;;;7.32;;
75667;SDS011;64266;48.798;44.756;2023-04-06T04:32:17;19.95;;;6.25;;
75667;SDS011;64266;48.798;44.756;2023-04-06T04:37:21;18.98;;;6.90;;
75667;SDS011;64266;48.798;44.756;2023-04-06T04:42:29;24.13;;;8.18;;
75667;SDS011;64266;48.798;44.756;2023-04-06T04:47:34;35.00;;;9.73;;
75667;SDS011;64266;48.798;44.756;2023-04-06T04:52:38;23.88;;;6.32;;
75667;SDS011;64266;48.798;44.756;2023-04-06T04:57:50;22.05;;;5.15;;
75667;SDS011;64266;48.798;44.756;2023-04-06T05:03:00;52.42;;;8.70;;
75667;SDS011;64266;48.798;44.756;2023-04-06T05:08:05;41.20;;;6.80;;
75667;SDS011;64266;48.798;44.756;2023-04-06T05:13:16;73.82;;;11.75;;
75667;SDS011;64266;48.798;44.756;2023-04-06T05:18:21;67.20;;;11.68;;
75667;SDS011;64266;48.798;44.756;2023-04-06T05:23:25;41.03;;;7.15;;
75667;SDS011;64266;48.798;44.756;2023-04-06T05:28:35;42.05;;;8.70;;
75667;SDS011;64266;48.798;44.756;2023-04-06T05:33:41;71.50;;;13.15;;
75667;SDS011;64266;48.798;44.756;2023-04-06T05:38:47;40.42;;;10.57;;
75667;SDS011;64266;48.798;44.756;2023-04-06T05:44:04;53.90;;;9.57;;
75667;SDS011;64266;48.798;44.756;2023-04-06T05:49:12;34.17;;;7.65;;
75667;SDS011;64266;48.798;44.756;2023-04-06T05:54:15;54.92;;;9.75;;
75667;SDS011;64266;48.798;44.756;2023-04-06T05:59:19;53.55;;;10.23;;
75667;SDS011;64266;48.798;44.756;2023-04-06T06:04:23;60.13;;;12.30;;
75667;SDS011;64266;48.798;44.756;2023-04-06T06:14:55;46.25;;;11.30;;
75667;SDS011;64266;48.798;44.756;2023-04-06T06:20:02;43.00;;;9.63;;
75667;SDS011;64266;48.798;44.756;2023-04-06T06:25:05;48.00;;;8.27;;
75667;SDS011;64266;48.798;44.756;2023-04-06T06:30:08;59.03;;;10.68;;
75667;SDS011;64266;48.798;44.756;2023-04-06T06:35:15;104.80;;;17.35;;
75667;SDS011;64266;48.798;44.756;2023-04-06T06:40:19;44.78;;;8.43;;
75667;SDS011;64266;48.798;44.756;2023-04-06T06:45:28;43.42;;;11.07;;
75667;SDS011;64266;48.798;44.756;2023-04-06T06:56:04;65.68;;;11.15;;
75667;SDS011;64266;48.798;44.756;2023-04-06T07:01:08;62.38;;;11.68;;
75667;SDS011;64266;48.798;44.756;2023-04-06T07:06:12;72.18;;;21.95;;
75667;SDS011;64266;48.798;44.756;2023-04-06T07:11:15;47.03;;;9.40;;
75667;SDS011;64266;48.798;44.756;2023-04-06T07:16:19;61.63;;;11.15;;
75667;SDS011;64266;48.798;44.756;2023-04-06T07:21:23;79.18;;;15.02;;
75667;SDS011;64266;48.798;44.756;2023-04-06T07:26:27;59.83;;;10.05;;
75667;SDS011;64266;48.798;44.756;2023-04-06T07:31:31;53.08;;;11.55;;
75667;SDS011;64266;48.798;44.756;2023-04-06T07:36:35;57.80;;;12.23;;
75667;SDS011;64266;48.798;44.756;2023-04-06T07:41:38;60.95;;;9.48;;
75667;SDS011;64266;48.798;44.756;2023-04-06T07:46:41;54.50;;;8.93;;
75667;SDS011;64266;48.798;44.756;2023-04-06T07:51:44;61.50;;;8.35;;
75667;SDS011;64266;48.798;44.756;2023-04-06T07:56:47;45.38;;;8.18;;
75667;SDS011;64266;48.798;44.756;2023-04-06T08:01:50;44.90;;;6.43;;
75667;SDS011;64266;48.798;44.756;2023-04-06T08:06:54;58.65;;;16.02;;
75667;SDS011;64266;48.798;44.756;2023-04-06T08:12:04;55.35;;;7.60;;
75667;SDS011;64266;48.798;44.756;2023-04-06T08:17:07;52.58;;;6.85;;
75667;SDS011;64266;48.798;44.756;2023-04-06T08:22:16;56.65;;;6.03;;
75667;SDS011;64266;48.798;44.756;2023-04-06T08:27:20;58.85;;;6.00;;
75667;SDS011;64266;48.798;44.756;2023-04-06T08:32:24;54.20;;;5.25;;
75667;SDS011;64266;48.798;44.756;2023-04-06T08:37:32;65.72;;;6.50;;
75667;SDS011;64266;48.798;44.756;2023-04-06T08:42:37;82.53;;;8.25;;
75667;SDS011;64266;48.798;44.756;2023-04-06T08:47:52;63.60;;;7.50;;
75667;SDS011;64266;48.798;44.756;2023-04-06T08:53:06;39.90;;;5.53;;
75667;SDS011;64266;48.798;44.756;2023-04-06T08:58:11;56.92;;;7.05;;
75667;SDS011;64266;48.798;44.756;2023-04-06T09:03:38;52.45;;;6.45;;
75667;SDS011;64266;48.798;44.756;2023-04-06T09:08:44;39.90;;;5.35;;
75667;SDS011;64266;48.798;44.756;2023-04-06T09:13:49;49.00;;;5.70;;
75667;SDS011;64266;48.798;44.756;2023-04-06T09:18:54;63.25;;;8.68;;
75667;SDS011;64266;48.798;44.756;2023-04-06T09:24:06;72.55;;;7.93;;
75667;SDS011;64266;48.798;44.756;2023-04-06T09:29:21;48.30;;;5.70;;
75667;SDS011;64266;48.798;44.756;2023-04-06T09:34:26;47.88;;;5.43;;
75667;SDS011;64266;48.798;44.756;2023-04-06T09:39:29;49.63;;;5.93;;
75667;SDS011;64266;48.798;44.756;2023-04-06T09:44:34;54.13;;;7.15;;
75667;SDS011;64266;48.798;44.756;2023-04-06T09:49:40;50.08;;;6.55;;
75667;SDS011;64266;48.798;44.756;2023-04-06T09:54:45;49.53;;;6.10;;
75667;SDS011;64266;48.798;44.756;2023-04-06T10:00:03;59.42;;;6.60;;
75667;SDS011;64266;48.798;44.756;2023-04-06T10:10:23;66.28;;;7.50;;
75667;SDS011;64266;48.798;44.756;2023-04-06T10:15:30;76.13;;;8.43;;
75667;SDS011;64266;48.798;44.756;2023-04-06T10:25:55;56.00;;;6.40;;
75667;SDS011;64266;48.798;44.756;2023-04-06T10:31:00;55.67;;;6.75;;
75667;SDS011;64266;48.798;44.756;2023-04-06T10:41:31;58.03;;;7.20;;
75667;SDS011;64266;48.798;44.756;2023-04-06T10:46:51;61.00;;;8.15;;
75667;SDS011;64266;48.798;44.756;2023-04-06T10:52:01;80.00;;;8.50;;
75667;SDS011;64266;48.798;44.756;2023-04-06T10:57:07;57.72;;;6.93;;
75667;SDS011;64266;48.798;44.756;2023-04-06T11:02:19;58.65;;;8.85;;
75667;SDS011;64266;48.798;44.756;2023-04-06T11:07:26;56.95;;;7.10;;
75667;SDS011;64266;48.798;44.756;2023-04-06T11:12:29;55.85;;;7.15;;
75667;SDS011;64266;48.798;44.756;2023-04-06T11:17:36;51.88;;;6.20;;
75667;SDS011;64266;48.798;44.756;2023-04-06T11:22:52;61.92;;;9.00;;
75667;SDS011;64266;48.798;44.756;2023-04-06T11:27:55;49.47;;;7.15;;
75667;SDS011;64266;48.798;44.756;2023-04-06T11:33:01;56.63;;;8.82;;
75667;SDS011;64266;48.798;44.756;2023-04-06T11:38:10;53.70;;;7.90;;
75667;SDS011;64266;48.798;44.756;2023-04-06T11:43:15;57.78;;;6.20;;
75667;SDS011;64266;48.798;44.756;2023-04-06T11:48:19;61.70;;;7.30;;
75667;SDS011;64266;48.798;44.756;2023-04-06T11:53:23;74.10;;;8.40;;
75667;SDS011;64266;48.798;44.756;2023-04-06T11:58:27;66.10;;;8.57;;
75667;SDS011;64266;48.798;44.756;2023-04-06T12:03:34;60.03;;;6.88;;
75667;SDS011;64266;48.798;44.756;2023-04-06T12:08:37;67.47;;;7.90;;
75667;SDS011;64266;48.798;44.756;2023-04-06T12:13:40;82.05;;;9.77;;
75667;SDS011;64266;48.798;44.756;2023-04-06T12:18:43;68.43;;;9.30;;
75667;SDS011;64266;48.798;44.756;2023-04-06T12:23:46;71.70;;;9.43;;
75667;SDS011;64266;48.798;44.756;2023-04-06T12:28:49;58.30;;;8.60;;
75667;SDS011;64266;48.798;44.756;2023-04-06T12:33:52;56.20;;;6.82;;
75667;SDS011;64266;48.798;44.756;2023-04-06T12:38:56;51.47;;;7.00;;
75667;SDS011;64266;48.798;44.756;2023-04-06T12:49:04;53.78;;;6.20;;
75667;SDS011;64266;48.798;44.756;2023-04-06T12:54:09;53.75;;;6.53;;
75667;SDS011;64266;48.798;44.756;2023-04-06T12:59:14;53.53;;;6.40;;
75667;SDS011;64266;48.798;44.756;2023-04-06T13:04:17;55.80;;;6.57;;
75667;SDS011;64266;48.798;44.756;2023-04-06T13:09:21;52.05;;;5.72;;
75667;SDS011;64266;48.798;44.756;2023-04-06T13:14:24;71.43;;;7.38;;
75667;SDS011;64266;48.798;44.756;2023-04-06T13:19:35;55.75;;;6.40;;
75667;SDS011;64266;48.798;44.756;2023-04-06T13:24:40;63.45;;;8.32;;
75667;SDS011;64266;48.798;44.756;2023-04-06T13:29:45;60.30;;;9.05;;
75667;SDS011;64266;48.798;44.756;2023-04-06T13:34:48;60.85;;;9.95;;
75667;SDS011;64266;48.798;44.756;2023-04-06T13:39:51;56.33;;;7.88;;
75667;SDS011;64266;48.798;44.756;2023-04-06T13:44:54;44.67;;;6.13;;
75667;SDS011;64266;48.798;44.756;2023-04-06T13:49:57;49.83;;;6.57;;
75667;SDS011;64266;48.798;44.756;2023-04-06T13:55:00;58.35;;;7.88;;
75667;SDS011;64266;48.798;44.756;2023-04-06T14:00:05;36.85;;;6.40;;
75667;SDS011;64266;48.798;44.756;2023-04-06T14:05:10;46.47;;;6.07;;
75667;SDS011;64266;48.798;44.756;2023-04-06T14:10:13;44.63;;;5.78;;
75667;SDS011;64266;48.798;44.756;2023-04-06T14:15:17;47.33;;;5.63;;
75667;SDS011;64266;48.798;44.756;2023-04-06T14:20:21;43.25;;;5.53;;
75667;SDS011;64266;48.798;44.756;2023-04-06T14:25:24;52.83;;;6.57;;
75667;SDS011;64266;48.798;44.756;2023-04-06T14:30:29;51.42;;;6.90;;
75667;SDS011;64266;48.798;44.756;2023-04-06T14:35:33;51.78;;;8.43;;
75667;SDS011;64266;48.798;44.756;2023-04-06T14:40:39;77.57;;;10.88;;
75667;SDS011;64266;48.798;44.756;2023-04-06T14:45:43;66.28;;;9.98;;
75667;SDS011;64266;48.798;44.756;2023-04-06T14:50:53;106.57;;;15.25;;
75667;SDS011;64266;48.798;44.756;2023-04-06T14:55:59;95.22;;;15.20;;
75667;SDS011;64266;48.798;44.756;2023-04-06T15:01:02;116.40;;;15.00;;
75667;SDS011;64266;48.798;44.756;2023-04-06T15:06:06;172.00;;;24.63;;
75667;SDS011;64266;48.798;44.756;2023-04-06T15:21:24;87.18;;;11.18;;
75667;SDS011;64266;48.798;44.756;2023-04-06T15:26:27;75.88;;;11.40;;
75667;SDS011;64266;48.798;44.756;2023-04-06T15:31:30;98.13;;;13.27;;
75667;SDS011;64266;48.798;44.756;2023-04-06T15:36:39;60.33;;;11.57;;
75667;SDS011;64266;48.798;44.756;2023-04-06T15:41:42;55.95;;;12.70;;
75667;SDS011;64266;48.798;44.756;2023-04-06T15:46:46;51.38;;;10.15;;
75667;SDS011;64266;48.798;44.756;2023-04-06T15:51:50;48.22;;;10.93;;
75667;SDS011;64266;48.798;44.756;2023-04-06T15:56:52;46.75;;;12.32;;
75667;SDS011;64266;48.798;44.756;2023-04-06T16:01:55;49.97;;;10.95;;
75667;SDS011;64266;48.798;44.756;2023-04-06T16:06:57;49.03;;;11.25;;
75667;SDS011;64266;48.798;44.756;2023-04-06T16:12:00;64.80;;;13.10;;
75667;SDS011;64266;48.798;44.756;2023-04-06T16:17:02;43.30;;;12.45;;
75667;SDS011;64266;48.798;44.756;2023-04-06T16:22:05;45.90;;;11.75;;
75667;SDS011;64266;48.798;44.756;2023-04-06T16:27:08;54.50;;;11.40;;
75667;SDS011;64266;48.798;44.756;2023-04-06T16:32:10;57.40;;;12.98;;
75667;SDS011;64266;48.798;44.756;2023-04-06T16:37:13;42.67;;;10.32;;
75667;SDS011;64266;48.798;44.756;2023-04-06T16:42:15;49.80;;;9.27;;
75667;SDS011;64266;48.798;44.756;2023-04-06T16:47:21;46.50;;;10.45;;
75667;SDS011;64266;48.798;44.756;2023-04-06T16:52:24;50.95;;;11.40;;
75667;SDS011;64266;48.798;44.756;2023-04-06T16:57:27;41.08;;;10.30;;
75667;SDS011;64266;48.798;44.756;2023-04-06T17:02:32;45.63;;;10.93;;
75667;SDS011;64266;48.798;44.756;2023-04-06T17:07:37;54.22;;;11.98;;
75667;SDS011;64266;48.798;44.756;2023-04-06T17:12:40;53.50;;;11.60;;
75667;SDS011;64266;48.798;44.756;2023-04-06T17:17:42;45.03;;;10.00;;
75667;SDS011;64266;48.798;44.756;2023-04-06T17:22:45;39.00;;;8.70;;
75667;SDS011;64266;48.798;44.756;2023-04-06T17:27:48;42.15;;;9.88;;
75667;SDS011;64266;48.798;44.756;2023-04-06T17:32:50;54.13;;;10.32;;
75667;SDS011;64266;48.798;44.756;2023-04-06T17:37:53;49.30;;;9.77;;
75667;SDS011;64266;48.798;44.756;2023-04-06T17:42:56;47.47;;;10.70;;
75667;SDS011;64266;48.798;44.756;2023-04-06T17:47:58;51.45;;;10.77;;
75667;SDS011;64266;48.798;44.756;2023-04-06T17:53:00;40.17;;;9.38;;
75667;SDS011;64266;48.798;44.756;2023-04-06T17:58:04;49.50;;;9.70;;
75667;SDS011;64266;48.798;44.756;2023-04-06T18:03:07;38.40;;;9.38;;
75667;SDS011;64266;48.798;44.756;2023-04-06T18:08:09;40.80;;;8.40;;
75667;SDS011;64266;48.798;44.756;2023-04-06T18:13:13;38.88;;;6.38;;
75667;SDS011;64266;48.798;44.756;2023-04-06T18:18:15;42.38;;;7.88;;
75667;SDS011;64266;48.798;44.756;2023-04-06T18:23:18;47.63;;;8.00;;
75667;SDS011;64266;48.798;44.756;2023-04-06T18:28:21;52.70;;;7.95;;
75667;SDS011;64266;48.798;44.756;2023-04-06T18:33:23;55.22;;;7.18;;
75667;SDS011;64266;48.798;44.756;2023-04-06T18:38:28;40.03;;;7.28;;
75667;SDS011;64266;48.798;44.756;2023-04-06T18:43:31;37.13;;;6.57;;
75667;SDS011;64266;48.798;44.756;2023-04-06T18:48:34;44.40;;;6.70;;
75667;SDS011;64266;48.798;44.756;2023-04-06T18:53:36;44.25;;;7.72;;
75667;SDS011;64266;48.798;44.756;2023-04-06T18:58:55;42.08;;;6.38;;
75667;SDS011;64266;48.798;44.756;2023-04-06T19:03:58;42.67;;;5.68;;
75667;SDS011;64266;48.798;44.756;2023-04-06T19:09:01;32.47;;;5.70;;
75667;SDS011;64266;48.798;44.756;2023-04-06T19:14:05;36.35;;;6.28;;
75667;SDS011;64266;48.798;44.756;2023-04-06T19:19:08;30.10;;;5.53;;
75667;SDS011;64266;48.798;44.756;2023-04-06T19:24:10;39.40;;;6.38;;
75667;SDS011;64266;48.798;44.756;2023-04-06T19:29:13;42.42;;;7.82;;
75667;SDS011;64266;48.798;44.756;2023-04-06T19:34:15;54.88;;;10.70;;
75667;SDS011;64266;48.798;44.756;2023-04-06T19:39:19;32.03;;;8.63;;
75667;SDS011;64266;48.798;44.756;2023-04-06T19:44:22;37.58;;;7.03;;
75667;SDS011;64266;48.798;44.756;2023-04-06T19:49:24;38.60;;;6.15;;
75667;SDS011;64266;48.798;44.756;2023-04-06T19:54:29;40.25;;;6.20;;
75667;SDS011;64266;48.798;44.756;2023-04-06T19:59:31;35.30;;;6.57;;
75667;SDS011;64266;48.798;44.756;2023-04-06T20:04:35;21.83;;;4.68;;
75667;SDS011;64266;48.798;44.756;2023-04-06T20:09:37;20.98;;;4.45;;
75667;SDS011;64266;48.798;44.756;2023-04-06T20:14:40;22.05;;;4.75;;
75667;SDS011;64266;48.798;44.756;2023-04-06T20:19:42;24.83;;;4.15;;
75667;SDS011;64266;48.798;44.756;2023-04-06T20:24:45;17.80;;;3.92;;
75667;SDS011;64266;48.798;44.756;2023-04-06T20:29:48;21.38;;;4.18;;
75667;SDS011;64266;48.798;44.756;2023-04-06T20:34:50;16.60;;;3.47;;
75667;SDS011;64266;48.798;44.756;2023-04-06T20:39:55;14.95;;;3.75;;
75667;SDS011;64266;48.798;44.756;2023-04-06T20:44:57;13.43;;;4.50;;
75667;SDS011;64266;48.798;44.756;2023-04-06T20:50:00;14.77;;;5.90;;
75667;SDS011;64266;48.798;44.756;2023-04-06T20:55:03;27.42;;;7.97;;
75667;SDS011;64266;48.798;44.756;2023-04-06T21:00:07;23.70;;;7.75;;
75667;SDS011;64266;48.798;44.756;2023-04-06T21:05:12;24.88;;;9.27;;
75667;SDS011;64266;48.798;44.756;2023-04-06T21:10:15;22.67;;;7.25;;
75667;SDS011;64266;48.798;44.756;2023-04-06T21:15:18;21.02;;;5.35;;
75667;SDS011;64266;48.798;44.756;2023-04-06T21:20:22;13.77;;;4.85;;
75667;SDS011;64266;48.798;44.756;2023-04-06T21:25:25;22.00;;;5.28;;
75667;SDS011;64266;48.798;44.756;2023-04-06T21:30:29;15.13;;;4.85;;
75667;SDS011;64266;48.798;44.756;2023-04-06T21:35:38;17.33;;;4.13;;
75667;SDS011;64266;48.798;44.756;2023-04-06T21:40:42;10.90;;;3.97;;
75667;SDS011;64266;48.798;44.756;2023-04-06T21:45:48;19.70;;;5.18;;
75667;SDS011;64266;48.798;44.756;2023-04-06T21:50:52;17.20;;;4.80;;
75667;SDS011;64266;48.798;44.756;2023-04-06T21:55:55;20.50;;;5.50;;
75667;SDS011;64266;48.798;44.756;2023-04-06T22:00:58;16.33;;;4.97;;
75667;SDS011;64266;48.798;44.756;2023-04-06T22:06:05;16.55;;;5.07;;
75667;SDS011;64266;48.798;44.756;2023-04-06T22:11:09;19.55;;;5.45;;
75667;SDS011;64266;48.798;44.756;2023-04-06T22:16:15;17.40;;;4.93;;
75667;SDS011;64266;48.798;44.756;2023-04-06T22:21:19;12.52;;;4.45;;
75667;SDS011;64266;48.798;44.756;2023-04-06T22:26:21;16.45;;;5.70;;
75667;SDS011;64266;48.798;44.756;2023-04-06T22:31:24;16.45;;;5.70;;
75667;SDS011;64266;48.798;44.756;2023-04-06T22:36:26;22.90;;;7.40;;
75667;SDS011;64266;48.798;44.756;2023-04-06T22:41:29;30.65;;;10.88;;
75667;SDS011;64266;48.798;44.756;2023-04-06T22:46:32;32.75;;;9.35;;
75667;SDS011;64266;48.798;44.756;2023-04-06T22:51:34;21.75;;;7.85;;
75667;SDS011;64266;48.798;44.756;2023-04-06T22:56:37;23.38;;;9.40;;
75667;SDS011;64266;48.798;44.756;2023-04-06T23:01:39;29.60;;;8.18;;
75667;SDS011;64266;48.798;44.756;2023-04-06T23:06:42;15.80;;;6.20;;
75667;SDS011;64266;48.798;44.756;2023-04-06T23:11:45;18.38;;;5.32;;
75667;SDS011;64266;48.798;44.756;2023-04-06T23:16:48;15.85;;;6.40;;
75667;SDS011;64266;48.798;44.756;2023-04-06T23:21:51;16.30;;;5.95;;
75667;SDS011;64266;48.798;44.756;2023-04-06T23:26:54;17.58;;;4.32;;
75667;SDS011;64266;48.798;44.756;2023-04-06T23:31:57;13.38;;;3.88;;
75667;SDS011;64266;48.798;44.756;2023-04-06T23:37:00;13.10;;;4.32;;
75667;SDS011;64266;48.798;44.756;2023-04-06T23:42:04;13.70;;;4.22;;
75667;SDS011;64266;48.798;44.756;2023-04-06T23:47:07;17.60;;;4.70;;
75667;SDS011;64266;48.798;44.756;2023-04-06T23:52:11;15.52;;;5.28;;
75667;SDS011;64266;48.798;44.756;2023-04-06T23:57:14;20.83;;;7.00;;
